AirNav   Air Wisconsin pilot careers
 
 876 users online  

04TS Hummingbird Heliport
Hutto, Texas, USA

GOING TO HUTTO?


FAA INFORMATION EFFECTIVE 15 AUGUST 2019

Location

FAA Identifier: 04TS
Lat/Long: 30-33-12.7140N 097-36-22.0190W
30-33.211900N 097-36.366983W
30.5535317,-97.6061164
(estimated)
Elevation: 690 ft. / 210 m (estimated)
Variation: 07E (1986)
From city: 4 miles W of HUTTO, TX
Time zone: UTC -5 (UTC -6 during Standard Time)
Zip code: 78626

Heliport Operations

Heliport use: Private use. Permission required prior to landing
Activation date: 04/1986
Control tower: no
ARTCC: HOUSTON CENTER
FSS: SAN ANGELO FLIGHT SERVICE STATION
Attendance: UNATNDD
Wind indicator: yes
Segmented circle: no

Heliport Communications

WX AWOS-3PT at GTU (8 nm NW): PHONE 512-869-3430
WX AWOS-3 at EDC (10 nm S): 118.825 (512-616-2967)
WX ASOS at RYW (19 nm W): 119.375 (512-267-1365)

Nearby radio navigation aids

VOR radial/distance  VOR name  Freq  Var
CWKr333/11.2CENTEX VORTAC112.8006E
GRKr153/30.7GRAY VOR/DME111.8007E

Heliport Services

Runway Information

Helipad H1

Dimensions: 20 x 20 ft. / 6 x 6 m
Surface: turf
Traffic pattern: leftleft

Heliport Ownership and Management from official FAA records

Ownership: Privately-owned
Owner: J. KENNETH FISHER
RT 3, BOX 223
GEORGETOWN, TX 78626
Phone 512-255-9847
Manager: J. KENNETH FISHER
RT 3, BOX 223
GEORGETOWN, TX 78626
Phone 512-255-9847

Additional Remarks

A52-H1 35' PLINE 60' W. OF LANDING PAD.
FOR CD CTC AUSTIN APCH AT 512-269-7865.

Instrument Procedures

There are no published instrument procedures at 04TS.

Some nearby airports with instrument procedures:

KGTU - Georgetown Municipal Airport (8 nm NW)
T74 - Taylor Municipal Airport (8 nm E)
KEDC - Austin Executive Airport (10 nm S)
KRYW - Lago Vista TX - Rusty Allen Airport (19 nm W)
KAUS - Austin-Bergstrom International Airport (22 nm S)
 
Loc | Ops | Rwys | IFR | FBO | Links
Com | Nav | Svcs | Stats | Notes
Area around 04TS (Hummingbird Heliport)
 
Road maps at: MapQuest Bing Google
 
Aerial photo
No photo
 
Sectional chart

 
Airport distance calculator
Flying to Hummingbird Heliport? Find the distance to fly.

From to 04TS

Sunrise and sunset
Times for 19-Aug-2019
 Local
(UTC-5)
 Zulu
(UTC)
Morning civil twilight06:3511:35
Sunrise07:0012:00
Sunset20:0801:08
Evening civil twilight20:3301:33

Current date and time
Zulu (UTC)  20-Aug-2019 02:35:22
Local (UTC-5)  19-Aug-2019 21:35:22
 
METAR
KGTU 
7nm NW 
200156Z 12004KT 10SM BKN075 34/19 A2995 RMK AO2 SLP133 T03390194
KEDC 
10nm S 
200135Z AUTO 15011KT 10SM SCT075 33/21 A2993 RMK AO2
KATT 
16nm S 
200151Z AUTO 14011G18KT 10SM FEW070 BKN085 34/20 A2994 RMK AO2 SLP119 T03440200
KAUS 
17nm S 
200153Z 14013KT 10SM FEW075 34/22 A2992 RMK AO2 SLP117 T03390217
KRYW 
19nm W 
200215Z AUTO 12004KT 10SM SCT070 32/20 A2998 RMK AO2 T03180200
TAF
KAUS 
17nm S 
191723Z 1918/2024 17012KT P6SM SCT040 SCT250 FM200700 18005KT P6SM SCT025 FM201500 18008KT P6SM SCT250
NOTAMs
Click for the latest NOTAMs
NOTAMs are issued by the DoD/FAA and will open in a separate window not controlled by AirNav.

 

 
 

Would you like to see your business listed on this page?

 If your business provides an interesting product or service to pilots, flight crews, aircraft, or users of the Hummingbird Heliport, you should consider listing it here.  To start the listing process, click on the button below
 
Add a business
 

Other Pages about Hummingbird Heliport

Update a link
 
Copyright © AirNav, LLC. All rights reserved. Privacy Policy  Contact